sensor_id;sensor_type;location;lat;lon;timestamp;P1;durP1;ratioP1;P2;durP2;ratioP2
37237;SDS011;23129;49.662;8.448;2023-06-14T00:00:15;5.05;;;3.53;;
37237;SDS011;23129;49.662;8.448;2023-06-14T00:02:44;6.40;;;3.58;;
37237;SDS011;23129;49.662;8.448;2023-06-14T00:05:13;6.55;;;3.75;;
37237;SDS011;23129;49.662;8.448;2023-06-14T00:07:42;5.55;;;3.30;;
37237;SDS011;23129;49.662;8.448;2023-06-14T00:10:10;7.57;;;3.63;;
37237;SDS011;23129;49.662;8.448;2023-06-14T00:12:40;7.90;;;3.85;;
37237;SDS011;23129;49.662;8.448;2023-06-14T00:15:09;3.58;;;3.28;;
37237;SDS011;23129;49.662;8.448;2023-06-14T00:17:39;9.85;;;4.45;;
37237;SDS011;23129;49.662;8.448;2023-06-14T00:20:08;6.68;;;3.47;;
37237;SDS011;23129;49.662;8.448;2023-06-14T00:22:38;4.78;;;3.35;;
37237;SDS011;23129;49.662;8.448;2023-06-14T00:25:07;7.65;;;3.72;;
37237;SDS011;23129;49.662;8.448;2023-06-14T00:27:54;5.18;;;3.65;;
37237;SDS011;23129;49.662;8.448;2023-06-14T00:30:24;6.18;;;2.88;;
37237;SDS011;23129;49.662;8.448;2023-06-14T00:32:58;9.88;;;3.67;;
37237;SDS011;23129;49.662;8.448;2023-06-14T00:35:27;8.93;;;3.53;;
37237;SDS011;23129;49.662;8.448;2023-06-14T00:37:56;4.78;;;3.72;;
37237;SDS011;23129;49.662;8.448;2023-06-14T00:40:25;8.50;;;3.58;;
37237;SDS011;23129;49.662;8.448;2023-06-14T00:42:54;5.03;;;3.42;;
37237;SDS011;23129;49.662;8.448;2023-06-14T00:45:23;11.75;;;4.38;;
37237;SDS011;23129;49.662;8.448;2023-06-14T00:47:51;8.93;;;3.78;;
37237;SDS011;23129;49.662;8.448;2023-06-14T00:50:23;4.43;;;3.60;;
37237;SDS011;23129;49.662;8.448;2023-06-14T00:52:52;5.82;;;3.70;;
37237;SDS011;23129;49.662;8.448;2023-06-14T00:55:21;11.10;;;3.78;;
37237;SDS011;23129;49.662;8.448;2023-06-14T00:57:50;4.88;;;3.55;;
37237;SDS011;23129;49.662;8.448;2023-06-14T01:00:18;5.63;;;3.70;;
37237;SDS011;23129;49.662;8.448;2023-06-14T01:02:47;4.45;;;3.88;;
37237;SDS011;23129;49.662;8.448;2023-06-14T01:05:17;8.55;;;3.70;;
37237;SDS011;23129;49.662;8.448;2023-06-14T01:07:58;7.85;;;4.10;;
37237;SDS011;23129;49.662;8.448;2023-06-14T01:10:45;10.10;;;4.25;;
37237;SDS011;23129;49.662;8.448;2023-06-14T01:13:21;5.63;;;3.85;;
37237;SDS011;23129;49.662;8.448;2023-06-14T01:15:55;6.18;;;4.50;;
37237;SDS011;23129;49.662;8.448;2023-06-14T01:18:24;4.57;;;3.70;;
37237;SDS011;23129;49.662;8.448;2023-06-14T01:20:56;6.20;;;3.88;;
37237;SDS011;23129;49.662;8.448;2023-06-14T01:23:26;4.70;;;3.58;;
37237;SDS011;23129;49.662;8.448;2023-06-14T01:25:59;5.22;;;4.00;;
37237;SDS011;23129;49.662;8.448;2023-06-14T01:28:33;5.18;;;3.40;;
37237;SDS011;23129;49.662;8.448;2023-06-14T01:31:03;6.65;;;3.90;;
37237;SDS011;23129;49.662;8.448;2023-06-14T01:33:33;3.72;;;3.40;;
37237;SDS011;23129;49.662;8.448;2023-06-14T01:36:04;6.32;;;3.67;;
37237;SDS011;23129;49.662;8.448;2023-06-14T01:38:35;5.00;;;4.40;;
37237;SDS011;23129;49.662;8.448;2023-06-14T01:41:04;6.53;;;3.80;;
37237;SDS011;23129;49.662;8.448;2023-06-14T01:43:34;5.13;;;3.33;;
37237;SDS011;23129;49.662;8.448;2023-06-14T01:46:04;5.47;;;3.67;;
37237;SDS011;23129;49.662;8.448;2023-06-14T01:48:33;7.40;;;3.88;;
37237;SDS011;23129;49.662;8.448;2023-06-14T01:51:03;5.47;;;3.40;;
37237;SDS011;23129;49.662;8.448;2023-06-14T01:53:31;6.53;;;3.20;;
37237;SDS011;23129;49.662;8.448;2023-06-14T01:56:02;6.50;;;3.75;;
37237;SDS011;23129;49.662;8.448;2023-06-14T01:58:31;9.45;;;4.30;;
37237;SDS011;23129;49.662;8.448;2023-06-14T02:01:00;8.50;;;3.92;;
37237;SDS011;23129;49.662;8.448;2023-06-14T02:03:29;6.88;;;4.18;;
37237;SDS011;23129;49.662;8.448;2023-06-14T02:05:57;7.15;;;4.22;;
37237;SDS011;23129;49.662;8.448;2023-06-14T02:08:27;4.38;;;3.58;;
37237;SDS011;23129;49.662;8.448;2023-06-14T02:10:55;5.47;;;4.30;;
37237;SDS011;23129;49.662;8.448;2023-06-14T02:13:25;7.00;;;4.03;;
37237;SDS011;23129;49.662;8.448;2023-06-14T02:15:54;5.97;;;3.80;;
37237;SDS011;23129;49.662;8.448;2023-06-14T02:18:23;10.80;;;3.58;;
37237;SDS011;23129;49.662;8.448;2023-06-14T02:20:52;4.43;;;4.00;;
37237;SDS011;23129;49.662;8.448;2023-06-14T02:23:21;5.82;;;4.47;;
37237;SDS011;23129;49.662;8.448;2023-06-14T02:25:50;10.98;;;3.80;;
37237;SDS011;23129;49.662;8.448;2023-06-14T02:28:19;5.07;;;4.18;;
37237;SDS011;23129;49.662;8.448;2023-06-14T02:30:49;5.10;;;3.88;;
37237;SDS011;23129;49.662;8.448;2023-06-14T02:33:21;4.65;;;3.92;;
37237;SDS011;23129;49.662;8.448;2023-06-14T02:35:51;6.57;;;3.63;;
37237;SDS011;23129;49.662;8.448;2023-06-14T02:38:20;8.73;;;4.80;;
37237;SDS011;23129;49.662;8.448;2023-06-14T02:40:48;4.72;;;4.25;;
37237;SDS011;23129;49.662;8.448;2023-06-14T02:43:17;7.10;;;4.35;;
37237;SDS011;23129;49.662;8.448;2023-06-14T02:45:46;7.35;;;4.35;;
37237;SDS011;23129;49.662;8.448;2023-06-14T02:48:17;10.35;;;3.95;;
37237;SDS011;23129;49.662;8.448;2023-06-14T02:50:45;6.15;;;4.20;;
37237;SDS011;23129;49.662;8.448;2023-06-14T02:53:14;11.18;;;4.82;;
37237;SDS011;23129;49.662;8.448;2023-06-14T02:55:43;6.93;;;4.70;;
37237;SDS011;23129;49.662;8.448;2023-06-14T02:58:13;12.32;;;4.82;;
37237;SDS011;23129;49.662;8.448;2023-06-14T03:00:42;22.45;;;5.22;;
37237;SDS011;23129;49.662;8.448;2023-06-14T03:03:13;9.48;;;4.10;;
37237;SDS011;23129;49.662;8.448;2023-06-14T03:05:48;8.57;;;4.28;;
37237;SDS011;23129;49.662;8.448;2023-06-14T03:08:22;7.10;;;4.40;;
37237;SDS011;23129;49.662;8.448;2023-06-14T03:10:55;18.13;;;4.57;;
37237;SDS011;23129;49.662;8.448;2023-06-14T03:13:24;10.88;;;4.55;;
37237;SDS011;23129;49.662;8.448;2023-06-14T03:15:53;18.02;;;6.22;;
37237;SDS011;23129;49.662;8.448;2023-06-14T03:18:24;8.93;;;4.70;;
37237;SDS011;23129;49.662;8.448;2023-06-14T03:20:55;11.25;;;4.32;;
37237;SDS011;23129;49.662;8.448;2023-06-14T03:23:26;6.93;;;3.75;;
37237;SDS011;23129;49.662;8.448;2023-06-14T03:25:55;8.02;;;4.45;;
37237;SDS011;23129;49.662;8.448;2023-06-14T03:28:25;6.75;;;3.38;;
37237;SDS011;23129;49.662;8.448;2023-06-14T03:30:55;9.82;;;3.58;;
37237;SDS011;23129;49.662;8.448;2023-06-14T03:33:26;5.20;;;4.05;;
37237;SDS011;23129;49.662;8.448;2023-06-14T03:35:55;5.88;;;3.80;;
37237;SDS011;23129;49.662;8.448;2023-06-14T03:38:24;5.15;;;3.85;;
37237;SDS011;23129;49.662;8.448;2023-06-14T03:40:53;10.30;;;4.13;;
37237;SDS011;23129;49.662;8.448;2023-06-14T03:43:21;4.50;;;3.58;;
37237;SDS011;23129;49.662;8.448;2023-06-14T03:45:50;4.35;;;3.95;;
37237;SDS011;23129;49.662;8.448;2023-06-14T03:48:21;6.35;;;4.05;;
37237;SDS011;23129;49.662;8.448;2023-06-14T03:50:52;4.50;;;3.70;;
37237;SDS011;23129;49.662;8.448;2023-06-14T03:53:25;6.63;;;3.25;;
37237;SDS011;23129;49.662;8.448;2023-06-14T03:55:55;10.13;;;4.53;;
37237;SDS011;23129;49.662;8.448;2023-06-14T03:58:34;6.18;;;3.92;;
37237;SDS011;23129;49.662;8.448;2023-06-14T04:01:03;14.02;;;3.90;;
37237;SDS011;23129;49.662;8.448;2023-06-14T04:03:33;4.55;;;3.75;;
37237;SDS011;23129;49.662;8.448;2023-06-14T04:06:04;5.05;;;3.78;;
37237;SDS011;23129;49.662;8.448;2023-06-14T04:08:34;8.23;;;3.90;;
37237;SDS011;23129;49.662;8.448;2023-06-14T04:11:02;3.90;;;3.20;;
37237;SDS011;23129;49.662;8.448;2023-06-14T04:13:31;4.90;;;3.30;;
37237;SDS011;23129;49.662;8.448;2023-06-14T04:16:01;5.30;;;3.30;;
37237;SDS011;23129;49.662;8.448;2023-06-14T04:18:33;12.15;;;3.80;;
37237;SDS011;23129;49.662;8.448;2023-06-14T04:21:03;4.05;;;3.53;;
37237;SDS011;23129;49.662;8.448;2023-06-14T04:23:32;8.00;;;3.88;;
37237;SDS011;23129;49.662;8.448;2023-06-14T04:26:01;8.40;;;3.17;;
37237;SDS011;23129;49.662;8.448;2023-06-14T04:28:30;4.93;;;4.18;;
37237;SDS011;23129;49.662;8.448;2023-06-14T04:31:01;7.47;;;3.45;;
37237;SDS011;23129;49.662;8.448;2023-06-14T04:33:31;4.43;;;3.75;;
37237;SDS011;23129;49.662;8.448;2023-06-14T04:36:14;13.63;;;4.10;;
37237;SDS011;23129;49.662;8.448;2023-06-14T04:38:46;5.45;;;3.47;;
37237;SDS011;23129;49.662;8.448;2023-06-14T04:41:15;7.78;;;3.75;;
37237;SDS011;23129;49.662;8.448;2023-06-14T04:43:45;3.75;;;3.13;;
37237;SDS011;23129;49.662;8.448;2023-06-14T04:46:15;6.50;;;3.35;;
37237;SDS011;23129;49.662;8.448;2023-06-14T04:48:45;8.57;;;3.15;;
37237;SDS011;23129;49.662;8.448;2023-06-14T04:51:16;7.63;;;3.17;;
37237;SDS011;23129;49.662;8.448;2023-06-14T04:53:47;4.82;;;3.35;;
37237;SDS011;23129;49.662;8.448;2023-06-14T04:56:16;5.00;;;3.40;;
37237;SDS011;23129;49.662;8.448;2023-06-14T04:58:45;5.32;;;3.22;;
37237;SDS011;23129;49.662;8.448;2023-06-14T05:01:14;8.13;;;3.50;;
37237;SDS011;23129;49.662;8.448;2023-06-14T05:03:42;7.63;;;3.63;;
37237;SDS011;23129;49.662;8.448;2023-06-14T05:06:16;4.90;;;3.40;;
37237;SDS011;23129;49.662;8.448;2023-06-14T05:08:45;4.63;;;3.38;;
37237;SDS011;23129;49.662;8.448;2023-06-14T05:11:14;4.47;;;3.58;;
37237;SDS011;23129;49.662;8.448;2023-06-14T05:13:43;8.43;;;3.80;;
37237;SDS011;23129;49.662;8.448;2023-06-14T05:16:13;7.47;;;3.38;;
37237;SDS011;23129;49.662;8.448;2023-06-14T05:18:45;7.25;;;3.40;;
37237;SDS011;23129;49.662;8.448;2023-06-14T05:21:14;3.97;;;3.38;;
37237;SDS011;23129;49.662;8.448;2023-06-14T05:23:45;8.27;;;3.58;;
37237;SDS011;23129;49.662;8.448;2023-06-14T05:26:13;5.82;;;3.50;;
37237;SDS011;23129;49.662;8.448;2023-06-14T05:28:42;3.63;;;3.20;;
37237;SDS011;23129;49.662;8.448;2023-06-14T05:31:11;10.75;;;4.53;;
37237;SDS011;23129;49.662;8.448;2023-06-14T05:33:40;3.63;;;3.33;;
37237;SDS011;23129;49.662;8.448;2023-06-14T05:36:08;4.93;;;3.28;;
37237;SDS011;23129;49.662;8.448;2023-06-14T05:38:38;4.68;;;3.60;;
37237;SDS011;23129;49.662;8.448;2023-06-14T05:41:07;6.70;;;3.60;;
37237;SDS011;23129;49.662;8.448;2023-06-14T05:43:35;7.05;;;3.15;;
37237;SDS011;23129;49.662;8.448;2023-06-14T05:46:04;4.72;;;3.65;;
37237;SDS011;23129;49.662;8.448;2023-06-14T05:48:33;7.38;;;3.35;;
37237;SDS011;23129;49.662;8.448;2023-06-14T05:51:01;3.33;;;3.03;;
37237;SDS011;23129;49.662;8.448;2023-06-14T05:53:30;5.60;;;3.70;;
37237;SDS011;23129;49.662;8.448;2023-06-14T05:56:00;8.10;;;3.60;;
37237;SDS011;23129;49.662;8.448;2023-06-14T05:58:28;14.80;;;3.50;;
37237;SDS011;23129;49.662;8.448;2023-06-14T06:00:57;5.57;;;3.75;;
37237;SDS011;23129;49.662;8.448;2023-06-14T06:03:26;16.48;;;4.03;;
37237;SDS011;23129;49.662;8.448;2023-06-14T06:05:56;3.58;;;3.28;;
37237;SDS011;23129;49.662;8.448;2023-06-14T06:08:25;14.20;;;3.92;;
37237;SDS011;23129;49.662;8.448;2023-06-14T06:10:54;6.97;;;3.58;;
37237;SDS011;23129;49.662;8.448;2023-06-14T06:13:24;4.85;;;3.28;;
37237;SDS011;23129;49.662;8.448;2023-06-14T06:15:52;5.63;;;3.78;;
37237;SDS011;23129;49.662;8.448;2023-06-14T06:18:22;10.05;;;3.08;;
37237;SDS011;23129;49.662;8.448;2023-06-14T06:20:51;4.72;;;3.40;;
37237;SDS011;23129;49.662;8.448;2023-06-14T06:23:20;5.68;;;3.28;;
37237;SDS011;23129;49.662;8.448;2023-06-14T06:25:48;5.20;;;3.67;;
37237;SDS011;23129;49.662;8.448;2023-06-14T06:28:18;13.27;;;3.20;;
37237;SDS011;23129;49.662;8.448;2023-06-14T06:30:48;8.73;;;3.17;;
37237;SDS011;23129;49.662;8.448;2023-06-14T06:33:17;10.40;;;3.47;;
37237;SDS011;23129;49.662;8.448;2023-06-14T06:35:45;11.20;;;3.75;;
37237;SDS011;23129;49.662;8.448;2023-06-14T06:38:14;11.80;;;3.53;;
37237;SDS011;23129;49.662;8.448;2023-06-14T06:40:45;5.28;;;3.35;;
37237;SDS011;23129;49.662;8.448;2023-06-14T06:43:13;4.43;;;3.22;;
37237;SDS011;23129;49.662;8.448;2023-06-14T06:45:47;5.43;;;3.28;;
37237;SDS011;23129;49.662;8.448;2023-06-14T06:48:16;6.85;;;2.75;;
37237;SDS011;23129;49.662;8.448;2023-06-14T06:50:45;8.57;;;4.18;;
37237;SDS011;23129;49.662;8.448;2023-06-14T06:53:13;5.43;;;3.30;;
37237;SDS011;23129;49.662;8.448;2023-06-14T06:55:56;3.08;;;2.72;;
37237;SDS011;23129;49.662;8.448;2023-06-14T06:58:24;6.53;;;3.55;;
37237;SDS011;23129;49.662;8.448;2023-06-14T07:00:55;5.45;;;2.58;;
37237;SDS011;23129;49.662;8.448;2023-06-14T07:03:23;12.65;;;2.58;;
37237;SDS011;23129;49.662;8.448;2023-06-14T07:05:52;5.32;;;2.90;;
37237;SDS011;23129;49.662;8.448;2023-06-14T07:08:20;8.63;;;2.83;;
37237;SDS011;23129;49.662;8.448;2023-06-14T07:10:49;5.45;;;2.53;;
37237;SDS011;23129;49.662;8.448;2023-06-14T07:13:18;6.57;;;3.03;;
37237;SDS011;23129;49.662;8.448;2023-06-14T07:15:46;3.03;;;2.72;;
37237;SDS011;23129;49.662;8.448;2023-06-14T07:18:17;7.47;;;2.88;;
37237;SDS011;23129;49.662;8.448;2023-06-14T07:20:45;9.25;;;3.00;;
37237;SDS011;23129;49.662;8.448;2023-06-14T07:23:14;10.32;;;3.15;;
37237;SDS011;23129;49.662;8.448;2023-06-14T07:25:42;3.58;;;3.15;;
37237;SDS011;23129;49.662;8.448;2023-06-14T07:28:11;11.07;;;3.08;;
37237;SDS011;23129;49.662;8.448;2023-06-14T07:30:40;3.80;;;3.28;;
37237;SDS011;23129;49.662;8.448;2023-06-14T07:33:08;11.43;;;3.45;;
37237;SDS011;23129;49.662;8.448;2023-06-14T07:35:40;3.63;;;2.75;;
37237;SDS011;23129;49.662;8.448;2023-06-14T07:38:09;4.25;;;2.92;;
37237;SDS011;23129;49.662;8.448;2023-06-14T07:40:38;4.88;;;3.20;;
37237;SDS011;23129;49.662;8.448;2023-06-14T07:43:06;4.57;;;3.15;;
37237;SDS011;23129;49.662;8.448;2023-06-14T07:45:36;15.52;;;3.13;;
37237;SDS011;23129;49.662;8.448;2023-06-14T07:48:11;14.88;;;3.55;;
37237;SDS011;23129;49.662;8.448;2023-06-14T07:50:41;9.13;;;3.25;;
37237;SDS011;23129;49.662;8.448;2023-06-14T07:53:09;4.10;;;2.70;;
37237;SDS011;23129;49.662;8.448;2023-06-14T07:55:38;4.00;;;3.35;;
37237;SDS011;23129;49.662;8.448;2023-06-14T07:58:19;6.05;;;3.00;;
37237;SDS011;23129;49.662;8.448;2023-06-14T08:00:47;6.18;;;3.13;;
37237;SDS011;23129;49.662;8.448;2023-06-14T08:03:16;3.38;;;2.58;;
37237;SDS011;23129;49.662;8.448;2023-06-14T08:05:46;7.90;;;3.10;;
37237;SDS011;23129;49.662;8.448;2023-06-14T08:08:14;3.95;;;2.65;;
37237;SDS011;23129;49.662;8.448;2023-06-14T08:10:44;3.72;;;2.88;;
37237;SDS011;23129;49.662;8.448;2023-06-14T08:13:12;7.93;;;2.58;;
37237;SDS011;23129;49.662;8.448;2023-06-14T08:15:41;3.47;;;2.75;;
37237;SDS011;23129;49.662;8.448;2023-06-14T08:18:10;7.68;;;3.20;;
37237;SDS011;23129;49.662;8.448;2023-06-14T08:20:39;5.50;;;2.97;;
37237;SDS011;23129;49.662;8.448;2023-06-14T08:23:09;10.35;;;2.75;;
37237;SDS011;23129;49.662;8.448;2023-06-14T08:25:37;3.25;;;2.42;;
37237;SDS011;23129;49.662;8.448;2023-06-14T08:28:06;5.88;;;2.47;;
37237;SDS011;23129;49.662;8.448;2023-06-14T08:30:35;4.78;;;2.83;;
37237;SDS011;23129;49.662;8.448;2023-06-14T08:33:03;6.25;;;3.05;;
37237;SDS011;23129;49.662;8.448;2023-06-14T08:35:42;4.40;;;2.83;;
37237;SDS011;23129;49.662;8.448;2023-06-14T08:38:13;4.55;;;3.03;;
37237;SDS011;23129;49.662;8.448;2023-06-14T08:40:42;3.78;;;2.38;;
37237;SDS011;23129;49.662;8.448;2023-06-14T08:43:12;2.72;;;2.22;;
37237;SDS011;23129;49.662;8.448;2023-06-14T08:45:41;5.28;;;3.25;;
37237;SDS011;23129;49.662;8.448;2023-06-14T08:48:10;7.63;;;2.40;;
37237;SDS011;23129;49.662;8.448;2023-06-14T08:50:43;2.88;;;2.53;;
37237;SDS011;23129;49.662;8.448;2023-06-14T08:53:15;7.32;;;2.25;;
37237;SDS011;23129;49.662;8.448;2023-06-14T08:55:47;3.38;;;1.70;;
37237;SDS011;23129;49.662;8.448;2023-06-14T08:58:16;2.10;;;1.70;;
37237;SDS011;23129;49.662;8.448;2023-06-14T09:00:46;5.53;;;2.20;;
37237;SDS011;23129;49.662;8.448;2023-06-14T09:03:16;14.13;;;2.60;;
37237;SDS011;23129;49.662;8.448;2023-06-14T09:05:47;5.25;;;2.10;;
37237;SDS011;23129;49.662;8.448;2023-06-14T09:08:17;2.95;;;2.10;;
37237;SDS011;23129;49.662;8.448;2023-06-14T09:10:48;2.92;;;1.67;;
37237;SDS011;23129;49.662;8.448;2023-06-14T09:13:18;4.63;;;1.77;;
37237;SDS011;23129;49.662;8.448;2023-06-14T09:15:47;3.20;;;1.80;;
37237;SDS011;23129;49.662;8.448;2023-06-14T09:18:15;2.60;;;1.40;;
37237;SDS011;23129;49.662;8.448;2023-06-14T09:20:46;2.08;;;1.65;;
37237;SDS011;23129;49.662;8.448;2023-06-14T09:23:20;7.82;;;2.13;;
37237;SDS011;23129;49.662;8.448;2023-06-14T09:25:49;4.30;;;1.63;;
37237;SDS011;23129;49.662;8.448;2023-06-14T09:28:19;12.88;;;2.10;;
37237;SDS011;23129;49.662;8.448;2023-06-14T09:30:54;1.90;;;1.80;;
37237;SDS011;23129;49.662;8.448;2023-06-14T09:33:22;1.70;;;1.60;;
37237;SDS011;23129;49.662;8.448;2023-06-14T09:35:53;9.90;;;2.55;;
37237;SDS011;23129;49.662;8.448;2023-06-14T09:38:23;3.85;;;1.95;;
37237;SDS011;23129;49.662;8.448;2023-06-14T09:40:55;3.20;;;2.78;;
37237;SDS011;23129;49.662;8.448;2023-06-14T09:43:26;4.70;;;2.08;;
37237;SDS011;23129;49.662;8.448;2023-06-14T09:45:55;2.97;;;1.77;;
37237;SDS011;23129;49.662;8.448;2023-06-14T09:48:24;2.38;;;2.10;;
37237;SDS011;23129;49.662;8.448;2023-06-14T09:50:53;2.17;;;1.67;;
37237;SDS011;23129;49.662;8.448;2023-06-14T09:53:26;6.55;;;2.00;;
37237;SDS011;23129;49.662;8.448;2023-06-14T09:55:58;1.90;;;1.80;;
37237;SDS011;23129;49.662;8.448;2023-06-14T09:58:27;3.45;;;1.80;;
37237;SDS011;23129;49.662;8.448;2023-06-14T10:00:58;5.05;;;1.73;;
37237;SDS011;23129;49.662;8.448;2023-06-14T10:03:28;1.75;;;1.55;;
37237;SDS011;23129;49.662;8.448;2023-06-14T10:06:15;4.40;;;1.90;;
37237;SDS011;23129;49.662;8.448;2023-06-14T10:08:46;2.58;;;2.05;;
37237;SDS011;23129;49.662;8.448;2023-06-14T10:11:17;2.20;;;1.33;;
37237;SDS011;23129;49.662;8.448;2023-06-14T10:13:46;13.52;;;1.90;;
37237;SDS011;23129;49.662;8.448;2023-06-14T10:16:16;2.08;;;1.88;;
37237;SDS011;23129;49.662;8.448;2023-06-14T10:18:49;1.85;;;1.45;;
37237;SDS011;23129;49.662;8.448;2023-06-14T10:21:28;1.40;;;1.30;;
37237;SDS011;23129;49.662;8.448;2023-06-14T10:24:07;8.07;;;2.25;;
37237;SDS011;23129;49.662;8.448;2023-06-14T10:26:49;2.58;;;1.73;;
37237;SDS011;23129;49.662;8.448;2023-06-14T10:29:21;7.65;;;1.70;;
37237;SDS011;23129;49.662;8.448;2023-06-14T10:31:50;1.80;;;1.20;;
37237;SDS011;23129;49.662;8.448;2023-06-14T10:37:00;1.23;;;1.08;;
37237;SDS011;23129;49.662;8.448;2023-06-14T10:39:37;3.78;;;1.08;;
37237;SDS011;23129;49.662;8.448;2023-06-14T10:42:08;1.45;;;1.35;;
37237;SDS011;23129;49.662;8.448;2023-06-14T10:44:41;1.67;;;1.17;;
37237;SDS011;23129;49.662;8.448;2023-06-14T10:47:19;2.07;;;1.70;;
37237;SDS011;23129;49.662;8.448;2023-06-14T10:49:52;2.45;;;1.40;;
37237;SDS011;23129;49.662;8.448;2023-06-14T10:52:24;2.95;;;1.60;;
37237;SDS011;23129;49.662;8.448;2023-06-14T10:55:10;4.20;;;1.50;;
37237;SDS011;23129;49.662;8.448;2023-06-14T10:57:43;3.63;;;1.40;;
37237;SDS011;23129;49.662;8.448;2023-06-14T11:00:18;12.35;;;1.23;;
37237;SDS011;23129;49.662;8.448;2023-06-14T11:06:13;3.80;;;1.73;;
37237;SDS011;23129;49.662;8.448;2023-06-14T11:12:09;2.08;;;1.45;;
37237;SDS011;23129;49.662;8.448;2023-06-14T11:14:38;2.47;;;1.33;;
37237;SDS011;23129;49.662;8.448;2023-06-14T11:17:07;2.28;;;1.77;;
37237;SDS011;23129;49.662;8.448;2023-06-14T11:19:36;2.38;;;2.08;;
37237;SDS011;23129;49.662;8.448;2023-06-14T11:22:05;1.70;;;1.60;;
37237;SDS011;23129;49.662;8.448;2023-06-14T11:24:34;3.75;;;1.90;;
37237;SDS011;23129;49.662;8.448;2023-06-14T11:27:03;3.15;;;1.67;;
37237;SDS011;23129;49.662;8.448;2023-06-14T11:29:34;7.95;;;2.00;;
37237;SDS011;23129;49.662;8.448;2023-06-14T11:32:02;2.58;;;2.00;;
37237;SDS011;23129;49.662;8.448;2023-06-14T11:34:38;2.78;;;2.35;;
37237;SDS011;23129;49.662;8.448;2023-06-14T11:37:07;2.03;;;1.90;;
37237;SDS011;23129;49.662;8.448;2023-06-14T11:39:36;2.97;;;2.30;;
37237;SDS011;23129;49.662;8.448;2023-06-14T11:42:13;2.30;;;2.05;;
37237;SDS011;23129;49.662;8.448;2023-06-14T11:44:44;2.22;;;2.03;;
37237;SDS011;23129;49.662;8.448;2023-06-14T11:47:16;5.73;;;2.30;;
37237;SDS011;23129;49.662;8.448;2023-06-14T11:49:45;3.08;;;2.35;;
37237;SDS011;23129;49.662;8.448;2023-06-14T11:52:14;3.63;;;2.53;;
37237;SDS011;23129;49.662;8.448;2023-06-14T11:54:44;5.15;;;2.55;;
37237;SDS011;23129;49.662;8.448;2023-06-14T11:57:15;2.28;;;2.08;;
37237;SDS011;23129;49.662;8.448;2023-06-14T11:59:48;2.15;;;1.98;;
37237;SDS011;23129;49.662;8.448;2023-06-14T12:02:17;2.03;;;1.92;;
37237;SDS011;23129;49.662;8.448;2023-06-14T12:04:50;5.38;;;1.70;;
37237;SDS011;23129;49.662;8.448;2023-06-14T12:07:19;10.20;;;2.13;;
37237;SDS011;23129;49.662;8.448;2023-06-14T12:10:05;3.53;;;1.70;;
37237;SDS011;23129;49.662;8.448;2023-06-14T12:12:37;1.83;;;1.65;;
37237;SDS011;23129;49.662;8.448;2023-06-14T12:15:09;3.08;;;2.53;;
37237;SDS011;23129;49.662;8.448;2023-06-14T12:17:39;1.95;;;1.85;;
37237;SDS011;23129;49.662;8.448;2023-06-14T12:20:10;5.53;;;1.85;;
37237;SDS011;23129;49.662;8.448;2023-06-14T12:22:50;5.97;;;2.13;;
37237;SDS011;23129;49.662;8.448;2023-06-14T12:25:27;2.22;;;2.03;;
37237;SDS011;23129;49.662;8.448;2023-06-14T12:27:59;1.90;;;1.70;;
37237;SDS011;23129;49.662;8.448;2023-06-14T12:30:34;7.93;;;2.13;;
37237;SDS011;23129;49.662;8.448;2023-06-14T12:33:03;2.10;;;1.90;;
37237;SDS011;23129;49.662;8.448;2023-06-14T12:35:34;5.07;;;1.98;;
37237;SDS011;23129;49.662;8.448;2023-06-14T12:38:02;3.85;;;1.80;;
37237;SDS011;23129;49.662;8.448;2023-06-14T12:40:31;4.25;;;2.03;;
37237;SDS011;23129;49.662;8.448;2023-06-14T12:43:00;3.83;;;1.90;;
37237;SDS011;23129;49.662;8.448;2023-06-14T12:45:30;3.92;;;1.83;;
37237;SDS011;23129;49.662;8.448;2023-06-14T12:48:00;3.15;;;1.88;;
37237;SDS011;23129;49.662;8.448;2023-06-14T12:50:28;4.15;;;2.03;;
37237;SDS011;23129;49.662;8.448;2023-06-14T12:52:57;4.43;;;2.28;;
37237;SDS011;23129;49.662;8.448;2023-06-14T12:55:26;5.10;;;1.92;;
37237;SDS011;23129;49.662;8.448;2023-06-14T12:57:54;2.63;;;1.55;;
37237;SDS011;23129;49.662;8.448;2023-06-14T13:00:23;3.13;;;1.52;;
37237;SDS011;23129;49.662;8.448;2023-06-14T13:02:53;3.97;;;1.90;;
37237;SDS011;23129;49.662;8.448;2023-06-14T13:05:23;8.73;;;4.43;;
37237;SDS011;23129;49.662;8.448;2023-06-14T13:07:52;4.65;;;1.52;;
37237;SDS011;23129;49.662;8.448;2023-06-14T13:10:20;2.45;;;1.48;;
37237;SDS011;23129;49.662;8.448;2023-06-14T13:12:49;6.30;;;1.70;;
37237;SDS011;23129;49.662;8.448;2023-06-14T13:15:18;4.22;;;1.83;;
37237;SDS011;23129;49.662;8.448;2023-06-14T13:17:47;4.43;;;2.03;;
37237;SDS011;23129;49.662;8.448;2023-06-14T13:20:15;2.60;;;1.73;;
37237;SDS011;23129;49.662;8.448;2023-06-14T13:22:48;1.77;;;1.63;;
37237;SDS011;23129;49.662;8.448;2023-06-14T13:25:16;5.07;;;1.70;;
37237;SDS011;23129;49.662;8.448;2023-06-14T13:27:45;3.13;;;2.05;;
37237;SDS011;23129;49.662;8.448;2023-06-14T13:30:14;1.98;;;1.70;;
37237;SDS011;23129;49.662;8.448;2023-06-14T13:32:43;3.63;;;1.52;;
37237;SDS011;23129;49.662;8.448;2023-06-14T13:35:15;6.63;;;1.65;;
37237;SDS011;23129;49.662;8.448;2023-06-14T13:37:44;1.90;;;1.80;;
37237;SDS011;23129;49.662;8.448;2023-06-14T13:40:14;2.20;;;1.30;;
37237;SDS011;23129;49.662;8.448;2023-06-14T13:42:43;2.00;;;1.80;;
37237;SDS011;23129;49.662;8.448;2023-06-14T13:45:13;6.38;;;2.60;;
37237;SDS011;23129;49.662;8.448;2023-06-14T13:47:42;2.17;;;1.98;;
37237;SDS011;23129;49.662;8.448;2023-06-14T13:50:11;3.60;;;2.33;;
37237;SDS011;23129;49.662;8.448;2023-06-14T13:52:40;6.45;;;1.55;;
37237;SDS011;23129;49.662;8.448;2023-06-14T13:55:09;1.70;;;1.60;;
37237;SDS011;23129;49.662;8.448;2023-06-14T13:57:39;2.00;;;1.65;;
37237;SDS011;23129;49.662;8.448;2023-06-14T14:00:08;10.73;;;2.08;;
37237;SDS011;23129;49.662;8.448;2023-06-14T14:02:38;3.33;;;1.60;;
37237;SDS011;23129;49.662;8.448;2023-06-14T14:05:08;3.25;;;1.67;;
37237;SDS011;23129;49.662;8.448;2023-06-14T14:07:36;1.92;;;1.70;;
37237;SDS011;23129;49.662;8.448;2023-06-14T14:10:06;4.15;;;1.88;;
37237;SDS011;23129;49.662;8.448;2023-06-14T14:12:36;3.40;;;1.75;;
37237;SDS011;23129;49.662;8.448;2023-06-14T14:15:07;2.00;;;1.90;;
37237;SDS011;23129;49.662;8.448;2023-06-14T14:17:39;1.95;;;1.85;;
37237;SDS011;23129;49.662;8.448;2023-06-14T14:20:09;5.53;;;3.25;;
37237;SDS011;23129;49.662;8.448;2023-06-14T14:22:39;8.45;;;2.00;;
37237;SDS011;23129;49.662;8.448;2023-06-14T14:25:09;2.25;;;2.03;;
37237;SDS011;23129;49.662;8.448;2023-06-14T14:27:39;1.90;;;1.70;;
37237;SDS011;23129;49.662;8.448;2023-06-14T14:30:11;4.80;;;1.60;;
37237;SDS011;23129;49.662;8.448;2023-06-14T14:32:41;4.30;;;2.30;;
37237;SDS011;23129;49.662;8.448;2023-06-14T14:35:09;1.65;;;1.55;;
37237;SDS011;23129;49.662;8.448;2023-06-14T14:37:38;1.58;;;1.48;;
37237;SDS011;23129;49.662;8.448;2023-06-14T14:40:07;4.60;;;1.60;;
37237;SDS011;23129;49.662;8.448;2023-06-14T14:42:37;2.97;;;2.00;;
37237;SDS011;23129;49.662;8.448;2023-06-14T14:45:06;2.00;;;1.73;;
37237;SDS011;23129;49.662;8.448;2023-06-14T14:47:36;2.55;;;1.60;;
37237;SDS011;23129;49.662;8.448;2023-06-14T14:50:05;2.15;;;1.95;;
37237;SDS011;23129;49.662;8.448;2023-06-14T14:52:35;6.45;;;2.22;;
37237;SDS011;23129;49.662;8.448;2023-06-14T14:55:04;2.00;;;1.88;;
37237;SDS011;23129;49.662;8.448;2023-06-14T14:57:34;4.18;;;1.75;;
37237;SDS011;23129;49.662;8.448;2023-06-14T15:00:03;4.95;;;1.55;;
37237;SDS011;23129;49.662;8.448;2023-06-14T15:02:34;4.25;;;1.60;;
37237;SDS011;23129;49.662;8.448;2023-06-14T15:05:04;12.20;;;1.90;;
37237;SDS011;23129;49.662;8.448;2023-06-14T15:07:33;1.48;;;1.38;;
37237;SDS011;23129;49.662;8.448;2023-06-14T15:10:02;2.47;;;1.70;;
37237;SDS011;23129;49.662;8.448;2023-06-14T15:12:33;2.55;;;2.20;;